sensor_id;sensor_type;location;lat;lon;timestamp;P1;durP1;ratioP1;P2;durP2;ratioP2
24995;SDS011;13016;52.162;21.034;2023-04-15T00:02:23;9.60;;;6.80;;
24995;SDS011;13016;52.162;21.034;2023-04-15T00:08:24;10.20;;;6.90;;
24995;SDS011;13016;52.162;21.034;2023-04-15T00:14:24;10.80;;;7.20;;
24995;SDS011;13016;52.162;21.034;2023-04-15T00:20:24;9.70;;;6.80;;
24995;SDS011;13016;52.162;21.034;2023-04-15T00:26:25;9.70;;;7.40;;
24995;SDS011;13016;52.162;21.034;2023-04-15T00:32:25;11.90;;;7.30;;
24995;SDS011;13016;52.162;21.034;2023-04-15T00:38:25;13.00;;;7.40;;
24995;SDS011;13016;52.162;21.034;2023-04-15T00:44:26;9.40;;;7.40;;
24995;SDS011;13016;52.162;21.034;2023-04-15T00:50:26;10.80;;;7.10;;
24995;SDS011;13016;52.162;21.034;2023-04-15T00:56:29;10.60;;;7.00;;
24995;SDS011;13016;52.162;21.034;2023-04-15T01:02:30;9.80;;;6.80;;
24995;SDS011;13016;52.162;21.034;2023-04-15T01:08:31;10.50;;;7.40;;
24995;SDS011;13016;52.162;21.034;2023-04-15T01:14:32;10.00;;;7.60;;
24995;SDS011;13016;52.162;21.034;2023-04-15T01:20:33;10.70;;;7.20;;
24995;SDS011;13016;52.162;21.034;2023-04-15T01:26:34;13.60;;;7.70;;
24995;SDS011;13016;52.162;21.034;2023-04-15T01:32:38;19.20;;;8.00;;
24995;SDS011;13016;52.162;21.034;2023-04-15T01:38:38;11.50;;;8.30;;
24995;SDS011;13016;52.162;21.034;2023-04-15T01:44:39;13.20;;;7.90;;
24995;SDS011;13016;52.162;21.034;2023-04-15T01:50:39;10.90;;;8.20;;
24995;SDS011;13016;52.162;21.034;2023-04-15T01:56:39;10.20;;;7.90;;
24995;SDS011;13016;52.162;21.034;2023-04-15T02:02:40;11.30;;;8.10;;
24995;SDS011;13016;52.162;21.034;2023-04-15T02:08:40;13.10;;;8.80;;
24995;SDS011;13016;52.162;21.034;2023-04-15T02:14:40;11.20;;;8.50;;
24995;SDS011;13016;52.162;21.034;2023-04-15T02:20:41;11.00;;;8.20;;
24995;SDS011;13016;52.162;21.034;2023-04-15T02:26:41;11.60;;;9.00;;
24995;SDS011;13016;52.162;21.034;2023-04-15T02:32:41;13.00;;;8.80;;
24995;SDS011;13016;52.162;21.034;2023-04-15T02:38:42;12.20;;;8.90;;
24995;SDS011;13016;52.162;21.034;2023-04-15T02:44:42;12.60;;;8.70;;
24995;SDS011;13016;52.162;21.034;2023-04-15T02:50:43;14.40;;;8.80;;
24995;SDS011;13016;52.162;21.034;2023-04-15T02:56:43;11.40;;;8.90;;
24995;SDS011;13016;52.162;21.034;2023-04-15T03:02:44;11.60;;;8.80;;
24995;SDS011;13016;52.162;21.034;2023-04-15T03:08:45;12.20;;;8.70;;
24995;SDS011;13016;52.162;21.034;2023-04-15T03:14:49;12.60;;;9.20;;
24995;SDS011;13016;52.162;21.034;2023-04-15T03:20:49;12.10;;;8.50;;
24995;SDS011;13016;52.162;21.034;2023-04-15T03:26:50;11.50;;;8.40;;
24995;SDS011;13016;52.162;21.034;2023-04-15T03:32:50;11.70;;;8.80;;
24995;SDS011;13016;52.162;21.034;2023-04-15T03:38:50;11.10;;;8.10;;
24995;SDS011;13016;52.162;21.034;2023-04-15T03:44:51;11.90;;;8.60;;
24995;SDS011;13016;52.162;21.034;2023-04-15T03:50:51;12.30;;;8.30;;
24995;SDS011;13016;52.162;21.034;2023-04-15T03:56:52;10.90;;;8.50;;
24995;SDS011;13016;52.162;21.034;2023-04-15T04:02:52;9.90;;;8.20;;
24995;SDS011;13016;52.162;21.034;2023-04-15T04:08:52;10.70;;;8.10;;
24995;SDS011;13016;52.162;21.034;2023-04-15T04:14:53;10.90;;;8.10;;
24995;SDS011;13016;52.162;21.034;2023-04-15T04:20:53;12.10;;;8.50;;
24995;SDS011;13016;52.162;21.034;2023-04-15T04:26:54;8.80;;;7.80;;
24995;SDS011;13016;52.162;21.034;2023-04-15T04:32:54;12.40;;;8.40;;
24995;SDS011;13016;52.162;21.034;2023-04-15T04:38:54;11.20;;;7.90;;
24995;SDS011;13016;52.162;21.034;2023-04-15T04:44:55;12.20;;;7.90;;
24995;SDS011;13016;52.162;21.034;2023-04-15T04:50:55;11.40;;;8.10;;
24995;SDS011;13016;52.162;21.034;2023-04-15T04:56:58;13.90;;;8.40;;
24995;SDS011;13016;52.162;21.034;2023-04-15T05:02:59;11.20;;;8.10;;
24995;SDS011;13016;52.162;21.034;2023-04-15T05:08:59;11.00;;;7.80;;
24995;SDS011;13016;52.162;21.034;2023-04-15T05:14:59;12.90;;;8.40;;
24995;SDS011;13016;52.162;21.034;2023-04-15T05:20:59;11.00;;;8.00;;
24995;SDS011;13016;52.162;21.034;2023-04-15T05:33:01;11.30;;;8.30;;
24995;SDS011;13016;52.162;21.034;2023-04-15T05:39:01;11.30;;;8.40;;
24995;SDS011;13016;52.162;21.034;2023-04-15T05:45:02;12.00;;;7.50;;
24995;SDS011;13016;52.162;21.034;2023-04-15T05:51:04;9.70;;;7.30;;
24995;SDS011;13016;52.162;21.034;2023-04-15T05:57:04;10.70;;;6.70;;
24995;SDS011;13016;52.162;21.034;2023-04-15T06:03:05;10.40;;;7.50;;
24995;SDS011;13016;52.162;21.034;2023-04-15T06:09:05;7.80;;;6.10;;
24995;SDS011;13016;52.162;21.034;2023-04-15T06:15:06;8.00;;;6.60;;
24995;SDS011;13016;52.162;21.034;2023-04-15T06:21:06;7.80;;;6.10;;
24995;SDS011;13016;52.162;21.034;2023-04-15T06:27:07;8.60;;;6.60;;
24995;SDS011;13016;52.162;21.034;2023-04-15T06:33:07;8.80;;;6.70;;
24995;SDS011;13016;52.162;21.034;2023-04-15T06:39:07;9.60;;;6.00;;
24995;SDS011;13016;52.162;21.034;2023-04-15T06:45:08;7.70;;;6.00;;
24995;SDS011;13016;52.162;21.034;2023-04-15T06:51:08;6.40;;;5.80;;
24995;SDS011;13016;52.162;21.034;2023-04-15T06:57:09;9.70;;;5.50;;
24995;SDS011;13016;52.162;21.034;2023-04-15T07:03:10;6.10;;;4.70;;
24995;SDS011;13016;52.162;21.034;2023-04-15T07:09:11;6.20;;;4.80;;
24995;SDS011;13016;52.162;21.034;2023-04-15T07:15:11;5.70;;;4.80;;
24995;SDS011;13016;52.162;21.034;2023-04-15T07:21:12;5.20;;;4.60;;
24995;SDS011;13016;52.162;21.034;2023-04-15T07:27:12;7.00;;;4.80;;
24995;SDS011;13016;52.162;21.034;2023-04-15T07:33:12;4.90;;;4.30;;
24995;SDS011;13016;52.162;21.034;2023-04-15T07:39:13;5.50;;;4.60;;
24995;SDS011;13016;52.162;21.034;2023-04-15T07:45:13;6.40;;;4.20;;
24995;SDS011;13016;52.162;21.034;2023-04-15T07:51:14;5.10;;;4.10;;
24995;SDS011;13016;52.162;21.034;2023-04-15T07:57:14;4.20;;;3.80;;
24995;SDS011;13016;52.162;21.034;2023-04-15T08:03:14;5.00;;;3.90;;
24995;SDS011;13016;52.162;21.034;2023-04-15T08:09:15;7.10;;;4.50;;
24995;SDS011;13016;52.162;21.034;2023-04-15T08:15:16;6.30;;;4.10;;
24995;SDS011;13016;52.162;21.034;2023-04-15T08:21:16;4.70;;;3.50;;
24995;SDS011;13016;52.162;21.034;2023-04-15T08:27:17;5.20;;;3.80;;
24995;SDS011;13016;52.162;21.034;2023-04-15T08:33:18;5.50;;;3.30;;
24995;SDS011;13016;52.162;21.034;2023-04-15T08:39:18;4.20;;;3.60;;
24995;SDS011;13016;52.162;21.034;2023-04-15T08:45:19;5.20;;;3.20;;
24995;SDS011;13016;52.162;21.034;2023-04-15T08:51:22;4.30;;;3.20;;
24995;SDS011;13016;52.162;21.034;2023-04-15T08:57:25;4.30;;;3.30;;
24995;SDS011;13016;52.162;21.034;2023-04-15T09:03:27;3.60;;;2.60;;
24995;SDS011;13016;52.162;21.034;2023-04-15T09:09:27;4.00;;;3.00;;
24995;SDS011;13016;52.162;21.034;2023-04-15T09:15:28;4.60;;;3.10;;
24995;SDS011;13016;52.162;21.034;2023-04-15T09:21:29;3.00;;;2.70;;
24995;SDS011;13016;52.162;21.034;2023-04-15T09:27:31;3.40;;;2.50;;
24995;SDS011;13016;52.162;21.034;2023-04-15T09:33:35;3.40;;;2.60;;
24995;SDS011;13016;52.162;21.034;2023-04-15T09:39:54;3.10;;;2.40;;
24995;SDS011;13016;52.162;21.034;2023-04-15T09:45:54;3.50;;;2.30;;
24995;SDS011;13016;52.162;21.034;2023-04-15T09:51:59;3.00;;;2.50;;
24995;SDS011;13016;52.162;21.034;2023-04-15T09:58:07;2.60;;;2.30;;
24995;SDS011;13016;52.162;21.034;2023-04-15T10:04:08;5.50;;;2.40;;
24995;SDS011;13016;52.162;21.034;2023-04-15T10:10:14;2.40;;;2.20;;
24995;SDS011;13016;52.162;21.034;2023-04-15T10:16:15;3.80;;;2.60;;
24995;SDS011;13016;52.162;21.034;2023-04-15T10:22:21;3.50;;;2.50;;
24995;SDS011;13016;52.162;21.034;2023-04-15T10:28:22;3.50;;;2.40;;
24995;SDS011;13016;52.162;21.034;2023-04-15T10:34:22;3.00;;;2.00;;
24995;SDS011;13016;52.162;21.034;2023-04-15T10:40:29;5.00;;;2.40;;
24995;SDS011;13016;52.162;21.034;2023-04-15T10:46:38;3.50;;;2.50;;
24995;SDS011;13016;52.162;21.034;2023-04-15T10:52:39;5.00;;;2.50;;
24995;SDS011;13016;52.162;21.034;2023-04-15T10:58:41;2.90;;;2.50;;
24995;SDS011;13016;52.162;21.034;2023-04-15T11:10:54;3.20;;;2.40;;
24995;SDS011;13016;52.162;21.034;2023-04-15T11:16:55;2.90;;;2.20;;
24995;SDS011;13016;52.162;21.034;2023-04-15T11:22:59;4.50;;;2.10;;
24995;SDS011;13016;52.162;21.034;2023-04-15T11:28:59;3.10;;;2.30;;
24995;SDS011;13016;52.162;21.034;2023-04-15T11:35:00;5.70;;;3.10;;
24995;SDS011;13016;52.162;21.034;2023-04-15T11:41:00;3.20;;;2.70;;
24995;SDS011;13016;52.162;21.034;2023-04-15T11:47:01;3.60;;;2.90;;
24995;SDS011;13016;52.162;21.034;2023-04-15T11:53:02;4.50;;;2.90;;
24995;SDS011;13016;52.162;21.034;2023-04-15T11:59:05;4.20;;;3.10;;
24995;SDS011;13016;52.162;21.034;2023-04-15T12:05:06;4.10;;;2.90;;
24995;SDS011;13016;52.162;21.034;2023-04-15T12:11:07;3.40;;;3.10;;
24995;SDS011;13016;52.162;21.034;2023-04-15T12:17:09;3.00;;;2.30;;
24995;SDS011;13016;52.162;21.034;2023-04-15T12:23:09;2.60;;;2.00;;
24995;SDS011;13016;52.162;21.034;2023-04-15T12:29:10;3.50;;;2.10;;
24995;SDS011;13016;52.162;21.034;2023-04-15T12:35:12;3.20;;;2.40;;
24995;SDS011;13016;52.162;21.034;2023-04-15T12:41:12;2.80;;;2.40;;
24995;SDS011;13016;52.162;21.034;2023-04-15T12:47:13;4.60;;;2.60;;
24995;SDS011;13016;52.162;21.034;2023-04-15T12:53:13;3.30;;;2.10;;
24995;SDS011;13016;52.162;21.034;2023-04-15T12:59:14;7.30;;;2.40;;
24995;SDS011;13016;52.162;21.034;2023-04-15T13:05:15;3.40;;;2.60;;
24995;SDS011;13016;52.162;21.034;2023-04-15T13:11:16;3.90;;;1.60;;
24995;SDS011;13016;52.162;21.034;2023-04-15T13:17:16;2.20;;;1.40;;
24995;SDS011;13016;52.162;21.034;2023-04-15T13:23:17;2.90;;;2.40;;
24995;SDS011;13016;52.162;21.034;2023-04-15T13:29:17;2.90;;;1.60;;
24995;SDS011;13016;52.162;21.034;2023-04-15T13:35:18;2.40;;;1.60;;
24995;SDS011;13016;52.162;21.034;2023-04-15T13:41:19;3.40;;;2.10;;
24995;SDS011;13016;52.162;21.034;2023-04-15T13:47:19;3.70;;;2.00;;
24995;SDS011;13016;52.162;21.034;2023-04-15T13:53:20;3.00;;;1.70;;
24995;SDS011;13016;52.162;21.034;2023-04-15T13:59:20;4.00;;;1.90;;
24995;SDS011;13016;52.162;21.034;2023-04-15T14:05:21;2.00;;;1.80;;
24995;SDS011;13016;52.162;21.034;2023-04-15T14:11:21;2.50;;;1.70;;
24995;SDS011;13016;52.162;21.034;2023-04-15T14:17:22;2.00;;;1.60;;
24995;SDS011;13016;52.162;21.034;2023-04-15T14:23:22;1.80;;;1.70;;
24995;SDS011;13016;52.162;21.034;2023-04-15T14:29:22;2.90;;;1.80;;
24995;SDS011;13016;52.162;21.034;2023-04-15T14:35:23;2.80;;;1.40;;
24995;SDS011;13016;52.162;21.034;2023-04-15T14:41:24;2.00;;;1.80;;
24995;SDS011;13016;52.162;21.034;2023-04-15T14:47:24;2.30;;;1.50;;
24995;SDS011;13016;52.162;21.034;2023-04-15T14:53:26;1.50;;;1.40;;
24995;SDS011;13016;52.162;21.034;2023-04-15T14:59:26;1.50;;;1.40;;
24995;SDS011;13016;52.162;21.034;2023-04-15T15:05:27;1.90;;;1.50;;
24995;SDS011;13016;52.162;21.034;2023-04-15T15:11:27;2.40;;;1.50;;
24995;SDS011;13016;52.162;21.034;2023-04-15T15:17:30;3.10;;;1.30;;
24995;SDS011;13016;52.162;21.034;2023-04-15T15:23:30;2.10;;;1.60;;
24995;SDS011;13016;52.162;21.034;2023-04-15T15:29:30;2.10;;;1.40;;
24995;SDS011;13016;52.162;21.034;2023-04-15T15:35:31;1.80;;;1.40;;
24995;SDS011;13016;52.162;21.034;2023-04-15T15:41:31;1.80;;;1.30;;
24995;SDS011;13016;52.162;21.034;2023-04-15T15:47:32;1.70;;;1.40;;
24995;SDS011;13016;52.162;21.034;2023-04-15T15:53:33;1.40;;;1.30;;
24995;SDS011;13016;52.162;21.034;2023-04-15T15:59:33;4.10;;;1.40;;
24995;SDS011;13016;52.162;21.034;2023-04-15T16:05:36;1.50;;;1.30;;
24995;SDS011;13016;52.162;21.034;2023-04-15T16:11:38;2.60;;;1.40;;
24995;SDS011;13016;52.162;21.034;2023-04-15T16:17:38;2.20;;;1.20;;
24995;SDS011;13016;52.162;21.034;2023-04-15T16:23:39;1.70;;;1.40;;
24995;SDS011;13016;52.162;21.034;2023-04-15T16:29:39;2.40;;;1.80;;
24995;SDS011;13016;52.162;21.034;2023-04-15T16:35:39;2.80;;;1.80;;
24995;SDS011;13016;52.162;21.034;2023-04-15T16:41:40;2.00;;;1.50;;
24995;SDS011;13016;52.162;21.034;2023-04-15T16:47:40;3.50;;;1.70;;
24995;SDS011;13016;52.162;21.034;2023-04-15T16:53:41;4.70;;;1.60;;
24995;SDS011;13016;52.162;21.034;2023-04-15T16:59:41;2.90;;;1.80;;
24995;SDS011;13016;52.162;21.034;2023-04-15T17:05:57;2.70;;;1.80;;
24995;SDS011;13016;52.162;21.034;2023-04-15T17:11:57;2.40;;;1.80;;
24995;SDS011;13016;52.162;21.034;2023-04-15T17:17:58;2.80;;;1.90;;
24995;SDS011;13016;52.162;21.034;2023-04-15T17:23:58;3.20;;;2.00;;
24995;SDS011;13016;52.162;21.034;2023-04-15T17:29:59;4.80;;;2.30;;
24995;SDS011;13016;52.162;21.034;2023-04-15T17:36:00;3.80;;;1.90;;
24995;SDS011;13016;52.162;21.034;2023-04-15T17:42:00;3.60;;;2.10;;
24995;SDS011;13016;52.162;21.034;2023-04-15T17:48:02;2.70;;;2.20;;
24995;SDS011;13016;52.162;21.034;2023-04-15T17:54:02;3.60;;;2.20;;
24995;SDS011;13016;52.162;21.034;2023-04-15T18:00:03;2.60;;;1.80;;
24995;SDS011;13016;52.162;21.034;2023-04-15T18:06:07;1.90;;;1.50;;
24995;SDS011;13016;52.162;21.034;2023-04-15T18:12:07;3.20;;;1.90;;
24995;SDS011;13016;52.162;21.034;2023-04-15T18:18:07;2.60;;;1.80;;
24995;SDS011;13016;52.162;21.034;2023-04-15T18:24:27;2.40;;;1.80;;
24995;SDS011;13016;52.162;21.034;2023-04-15T18:30:29;1.80;;;1.50;;
24995;SDS011;13016;52.162;21.034;2023-04-15T18:36:32;2.40;;;1.90;;
24995;SDS011;13016;52.162;21.034;2023-04-15T18:42:42;2.30;;;1.80;;
24995;SDS011;13016;52.162;21.034;2023-04-15T18:48:43;2.60;;;2.10;;
24995;SDS011;13016;52.162;21.034;2023-04-15T18:54:43;1.90;;;1.70;;
24995;SDS011;13016;52.162;21.034;2023-04-15T19:00:47;2.70;;;1.80;;
24995;SDS011;13016;52.162;21.034;2023-04-15T19:06:48;3.80;;;1.70;;
24995;SDS011;13016;52.162;21.034;2023-04-15T19:12:48;2.90;;;1.80;;
24995;SDS011;13016;52.162;21.034;2023-04-15T19:18:48;2.80;;;1.80;;
24995;SDS011;13016;52.162;21.034;2023-04-15T19:24:50;2.50;;;1.90;;
24995;SDS011;13016;52.162;21.034;2023-04-15T19:30:50;2.80;;;2.00;;
24995;SDS011;13016;52.162;21.034;2023-04-15T19:36:51;2.50;;;2.00;;
24995;SDS011;13016;52.162;21.034;2023-04-15T19:42:51;2.30;;;1.80;;
24995;SDS011;13016;52.162;21.034;2023-04-15T19:48:51;3.20;;;1.90;;
24995;SDS011;13016;52.162;21.034;2023-04-15T19:54:53;2.60;;;2.00;;
24995;SDS011;13016;52.162;21.034;2023-04-15T20:00:53;1.90;;;1.60;;
24995;SDS011;13016;52.162;21.034;2023-04-15T20:06:54;2.60;;;1.90;;
24995;SDS011;13016;52.162;21.034;2023-04-15T20:12:54;3.60;;;2.20;;
24995;SDS011;13016;52.162;21.034;2023-04-15T20:18:54;3.70;;;2.60;;
24995;SDS011;13016;52.162;21.034;2023-04-15T20:24:54;2.70;;;2.30;;
24995;SDS011;13016;52.162;21.034;2023-04-15T20:30:55;4.20;;;2.50;;
24995;SDS011;13016;52.162;21.034;2023-04-15T20:36:55;2.40;;;2.10;;
24995;SDS011;13016;52.162;21.034;2023-04-15T20:42:56;3.30;;;2.50;;
24995;SDS011;13016;52.162;21.034;2023-04-15T20:48:56;3.40;;;2.40;;
24995;SDS011;13016;52.162;21.034;2023-04-15T20:54:59;3.40;;;2.40;;
24995;SDS011;13016;52.162;21.034;2023-04-15T21:00:59;3.60;;;2.30;;
24995;SDS011;13016;52.162;21.034;2023-04-15T21:07:00;3.90;;;2.50;;
24995;SDS011;13016;52.162;21.034;2023-04-15T21:13:00;5.80;;;2.40;;
24995;SDS011;13016;52.162;21.034;2023-04-15T21:19:04;2.90;;;2.50;;
24995;SDS011;13016;52.162;21.034;2023-04-15T21:25:04;4.90;;;2.40;;
24995;SDS011;13016;52.162;21.034;2023-04-15T21:31:05;3.60;;;2.50;;
24995;SDS011;13016;52.162;21.034;2023-04-15T21:37:05;2.80;;;2.20;;
24995;SDS011;13016;52.162;21.034;2023-04-15T21:43:06;2.80;;;2.10;;
24995;SDS011;13016;52.162;21.034;2023-04-15T21:49:06;3.00;;;2.30;;
24995;SDS011;13016;52.162;21.034;2023-04-15T21:55:07;3.40;;;2.00;;
24995;SDS011;13016;52.162;21.034;2023-04-15T22:01:07;2.90;;;2.20;;
24995;SDS011;13016;52.162;21.034;2023-04-15T22:07:08;4.00;;;2.20;;
24995;SDS011;13016;52.162;21.034;2023-04-15T22:13:08;3.30;;;2.60;;
24995;SDS011;13016;52.162;21.034;2023-04-15T22:19:08;3.00;;;2.40;;
24995;SDS011;13016;52.162;21.034;2023-04-15T22:25:09;2.50;;;2.30;;
24995;SDS011;13016;52.162;21.034;2023-04-15T22:31:11;2.80;;;2.10;;
24995;SDS011;13016;52.162;21.034;2023-04-15T22:37:12;3.10;;;2.50;;
24995;SDS011;13016;52.162;21.034;2023-04-15T22:43:13;3.70;;;2.70;;
24995;SDS011;13016;52.162;21.034;2023-04-15T22:49:13;3.10;;;2.60;;
24995;SDS011;13016;52.162;21.034;2023-04-15T22:55:13;4.00;;;3.00;;
24995;SDS011;13016;52.162;21.034;2023-04-15T23:01:15;4.10;;;3.00;;
24995;SDS011;13016;52.162;21.034;2023-04-15T23:07:15;4.00;;;3.10;;
24995;SDS011;13016;52.162;21.034;2023-04-15T23:13:16;4.40;;;3.00;;
24995;SDS011;13016;52.162;21.034;2023-04-15T23:19:16;3.30;;;2.70;;
24995;SDS011;13016;52.162;21.034;2023-04-15T23:25:16;6.30;;;2.50;;
24995;SDS011;13016;52.162;21.034;2023-04-15T23:31:17;3.20;;;2.50;;
24995;SDS011;13016;52.162;21.034;2023-04-15T23:37:17;4.00;;;3.00;;
24995;SDS011;13016;52.162;21.034;2023-04-15T23:43:17;3.80;;;2.90;;
24995;SDS011;13016;52.162;21.034;2023-04-15T23:49:18;4.30;;;3.00;;
24995;SDS011;13016;52.162;21.034;2023-04-15T23:55:18;4.40;;;3.20;;
